Time;durP1;ratioP1;P1;durP2;ratioP2;P2;SDS_P1;SDS_P2;PMS_P1;PMS_P2;Temp;Humidity;BMP_temperature;BMP_pressure;BME280_temperature;BME280_humidity;BME280_pressure;Samples;Min_cycle;Max_cycle;Signal;HPM_P1;HPM_P2
2023/01/21 00:00:13;;;;;;;53.43;39.40;;;-0.30;99.90;;;;;;4972450;28;20035;-74
2023/01/21 00:02:39;;;;;;;57.70;39.73;;;-0.40;99.90;;;;;;4976708;28;20041;-75
2023/01/21 00:05:05;;;;;;;58.47;39.40;;;-0.50;99.90;;;;;;4957797;28;20181;-75
2023/01/21 00:07:31;;;;;;;55.33;41.00;;;-0.40;99.90;;;;;;4928894;28;20056;-75
2023/01/21 00:09:57;;;;;;;59.97;42.20;;;-0.40;99.90;;;;;;4971112;28;20047;-75
2023/01/21 00:12:23;;;;;;;63.17;43.80;;;-0.40;99.90;;;;;;4938444;28;20042;-75
2023/01/21 00:14:48;;;;;;;59.77;40.60;;;-0.40;99.90;;;;;;4947481;28;20081;-75
2023/01/21 00:17:14;;;;;;;61.07;41.67;;;-0.40;99.90;;;;;;4982393;28;20176;-75
2023/01/21 00:19:40;;;;;;;58.53;40.50;;;-0.40;99.90;;;;;;4989129;28;20128;-75
2023/01/21 00:22:06;;;;;;;58.50;40.93;;;-0.30;99.90;;;;;;4983591;28;20524;-75
2023/01/21 00:24:31;;;;;;;62.83;42.90;;;-0.30;99.90;;;;;;4972479;28;20057;-75
2023/01/21 00:26:57;;;;;;;63.70;44.00;;;-0.30;99.90;;;;;;4974175;28;20046;-74
2023/01/21 00:29:24;;;;;;;62.23;43.57;;;-0.30;99.90;;;;;;4956280;28;20520;-75
2023/01/21 00:31:50;;;;;;;62.53;44.20;;;-0.30;99.90;;;;;;4988250;28;20318;-75
2023/01/21 00:34:16;;;;;;;67.57;44.90;;;-0.30;99.90;;;;;;4955494;28;20069;-75
2023/01/21 00:36:41;;;;;;;67.23;44.70;;;-0.20;99.90;;;;;;4953583;28;20121;-75
2023/01/21 00:39:07;;;;;;;63.50;45.47;;;-0.20;99.90;;;;;;4971787;28;20497;-76
2023/01/21 00:41:33;;;;;;;65.63;43.30;;;-0.30;99.90;;;;;;4970029;28;20073;-73
2023/01/21 00:43:59;;;;;;;63.07;43.73;;;-0.20;99.90;;;;;;4963762;28;20144;-75
2023/01/21 00:46:26;;;;;;;63.67;43.80;;;-0.20;99.90;;;;;;4972060;28;20054;-75
2023/01/21 00:48:54;;;;;;;65.03;44.47;;;-0.20;99.90;;;;;;4960385;28;20050;-75
2023/01/21 00:51:22;;;;;;;68.30;45.60;;;-0.20;99.90;;;;;;4947830;28;20045;-76
2023/01/21 00:53:48;;;;;;;66.10;43.07;;;-0.20;99.90;;;;;;4960644;28;20053;-75
2023/01/21 00:56:14;;;;;;;64.17;43.20;;;-0.20;99.90;;;;;;4970496;28;20033;-75
2023/01/21 00:58:42;;;;;;;64.17;42.67;;;-0.20;99.90;;;;;;4986668;28;20115;-75
2023/01/21 01:01:11;;;;;;;66.73;45.17;;;-0.20;99.90;;;;;;4967798;28;20100;-75
2023/01/21 01:03:38;;;;;;;67.53;45.33;;;-0.30;99.90;;;;;;4985909;28;20045;-76
2023/01/21 01:06:07;;;;;;;69.00;46.17;;;-0.30;99.90;;;;;;4980056;28;20521;-76
2023/01/21 01:08:33;;;;;;;72.67;47.70;;;-0.30;99.90;;;;;;4967894;28;20088;-75
2023/01/21 01:11:01;;;;;;;74.03;49.80;;;-0.30;99.90;;;;;;4994419;28;20061;-75
2023/01/21 01:13:27;;;;;;;73.20;48.47;;;-0.20;99.90;;;;;;4988992;28;20045;-76
2023/01/21 01:15:54;;;;;;;77.90;48.77;;;-0.20;99.90;;;;;;4964643;28;20520;-75
2023/01/21 01:18:25;;;;;;;77.60;49.70;;;-0.20;99.90;;;;;;4987935;28;20103;-75
2023/01/21 01:20:51;;;;;;;80.97;49.17;;;-0.20;99.90;;;;;;4987218;28;20072;-75
2023/01/21 01:23:17;;;;;;;81.67;48.20;;;-0.20;99.90;;;;;;4971410;28;20489;-75
2023/01/21 01:25:42;;;;;;;83.10;52.27;;;-0.20;99.90;;;;;;4956203;28;20129;-75
2023/01/21 01:28:09;;;;;;;79.73;48.43;;;-0.20;99.90;;;;;;4944007;28;20618;-75
2023/01/21 01:30:35;;;;;;;78.80;51.90;;;-0.30;99.90;;;;;;4953989;28;20047;-75
2023/01/21 01:33:01;;;;;;;81.80;50.37;;;-0.20;99.90;;;;;;4988622;28;20397;-76
2023/01/21 01:35:27;;;;;;;81.03;51.37;;;-0.20;99.90;;;;;;4987252;28;20054;-75
2023/01/21 01:37:56;;;;;;;81.67;49.17;;;-0.20;99.90;;;;;;4986781;28;20030;-76
2023/01/21 01:40:22;;;;;;;84.43;51.67;;;-0.20;99.90;;;;;;4954940;28;20057;-72
2023/01/21 01:42:48;;;;;;;88.13;50.47;;;-0.30;99.90;;;;;;4984404;28;20663;-72
2023/01/21 01:45:13;;;;;;;85.33;49.87;;;-0.20;99.90;;;;;;4974468;28;20076;-72
2023/01/21 01:47:56;;;;;;;78.17;48.03;;;-0.10;99.90;;;;;;4979951;28;20544;-72
2023/01/21 01:50:29;;;;;;;85.33;50.97;;;-0.20;99.90;;;;;;4980920;28;20081;-72
2023/01/21 01:53:01;;;;;;;85.97;49.37;;;-0.20;99.90;;;;;;4988442;28;20054;-72
2023/01/21 01:55:30;;;;;;;84.27;49.13;;;-0.10;99.90;;;;;;5000521;28;20054;-73
2023/01/21 01:57:56;;;;;;;83.03;48.67;;;-0.20;99.90;;;;;;4983530;28;20389;-72
2023/01/21 02:00:26;;;;;;;76.63;48.07;;;-0.20;99.90;;;;;;4979926;28;20548;-72
2023/01/21 02:05:39;;;;;;;89.47;51.07;;;-0.30;99.90;;;;;;4978255;28;20133;-72
2023/01/21 02:08:06;;;;;;;87.40;48.30;;;-0.20;99.90;;;;;;4952364;28;20030;-72
2023/01/21 02:10:33;;;;;;;86.03;48.87;;;-0.20;99.90;;;;;;4967451;28;20412;-74
2023/01/21 02:13:00;;;;;;;83.10;47.50;;;-0.20;99.90;;;;;;4969140;28;20041;-72
2023/01/21 02:15:37;;;;;;;83.20;48.90;;;-0.20;99.90;;;;;;4985234;28;20081;-73
2023/01/21 02:18:21;;;;;;;81.43;48.57;;;-0.30;99.90;;;;;;4982065;28;20038;-72
2023/01/21 02:21:21;;;;;;;97.83;53.07;;;-0.30;99.90;;;;;;4982217;28;20050;-72
2023/01/21 02:23:47;;;;;;;94.60;50.83;;;-0.30;99.90;;;;;;4962004;28;20050;-72
2023/01/21 02:26:25;;;;;;;92.13;49.03;;;-0.20;99.90;;;;;;4970492;28;20053;-72
2023/01/21 02:29:32;;;;;;;94.47;51.77;;;-0.30;99.90;;;;;;4973328;28;20088;-72
2023/01/21 02:32:17;;;;;;;73.30;45.33;;;-0.30;99.90;;;;;;4987789;28;20497;-72
2023/01/21 02:34:50;;;;;;;112.40;54.73;;;-0.30;99.90;;;;;;4971904;28;20518;-72
2023/01/21 02:37:32;;;;;;;95.13;49.80;;;-0.20;99.90;;;;;;4988619;28;20042;-72
2023/01/21 02:40:08;;;;;;;99.37;49.90;;;-0.20;99.90;;;;;;4972146;28;20099;-72
2023/01/21 02:43:06;;;;;;;109.47;52.33;;;-0.20;99.90;;;;;;4985613;28;20073;-72
2023/01/21 02:45:45;;;;;;;156.50;57.33;;;-0.20;99.90;;;;;;4989026;28;20065;-72
2023/01/21 02:48:20;;;;;;;144.30;57.40;;;-0.30;99.90;;;;;;4971006;28;20054;-72
2023/01/21 02:50:51;;;;;;;111.70;52.00;;;-0.30;99.90;;;;;;4971383;28;20362;-73
2023/01/21 02:53:32;;;;;;;109.97;52.97;;;-0.30;99.90;;;;;;4972925;28;20131;-72
2023/01/21 02:56:21;;;;;;;128.47;54.57;;;-0.30;99.90;;;;;;4989565;28;20052;-72
2023/01/21 02:59:02;;;;;;;135.30;56.70;;;-0.20;99.90;;;;;;4970303;28;20061;-72
2023/01/21 03:01:49;;;;;;;107.77;52.33;;;-0.20;99.90;;;;;;4966015;28;20042;-72
2023/01/21 03:04:34;;;;;;;139.63;58.47;;;-0.30;99.90;;;;;;4960760;28;20046;-73
2023/01/21 03:07:26;;;;;;;127.87;55.93;;;-0.30;99.90;;;;;;4954884;28;20049;-72
2023/01/21 03:09:57;;;;;;;113.57;53.43;;;-0.30;99.90;;;;;;4980562;28;20038;-73
2023/01/21 03:12:35;;;;;;;123.27;55.80;;;-0.30;99.90;;;;;;4981785;28;20049;-73
2023/01/21 03:17:56;;;;;;;114.23;51.93;;;-0.20;99.90;;;;;;4988580;28;20049;-73
2023/01/21 03:20:35;;;;;;;127.47;54.70;;;-0.30;99.90;;;;;;4965055;28;20050;-73
2023/01/21 03:23:07;;;;;;;147.80;57.47;;;-0.30;99.90;;;;;;4989461;28;20041;-73
2023/01/21 03:25:37;;;;;;;121.60;55.47;;;-0.20;99.90;;;;;;4973457;28;20058;-73
2023/01/21 03:28:07;;;;;;;108.35;52.08;;;-0.20;99.90;;;;;;4972336;28;20030;-73
2023/01/21 03:30:40;;;;;;;102.00;51.47;;;-0.20;99.90;;;;;;4976165;28;20057;-73
2023/01/21 03:33:08;;;;;;;89.03;49.07;;;-0.20;99.90;;;;;;4973890;28;20941;-73
2023/01/21 03:35:42;;;;;;;108.00;53.53;;;-0.10;99.90;;;;;;4984766;28;20129;-72
2023/01/21 03:38:30;;;;;;;127.80;56.33;;;-0.10;99.90;;;;;;4989883;28;20120;-72
2023/01/21 03:41:07;;;;;;;89.47;48.53;;;-0.10;99.90;;;;;;4968077;28;20048;-72
2023/01/21 03:43:37;;;;;;;96.77;50.63;;;-0.10;99.90;;;;;;4985011;28;20391;-72
2023/01/21 03:46:25;;;;;;;79.17;44.77;;;0.00;99.90;;;;;;4974125;28;20124;-72
2023/01/21 03:48:58;;;;;;;82.97;46.90;;;0.00;99.90;;;;;;4987046;28;20038;-72
2023/01/21 03:51:31;;;;;;;101.43;49.63;;;0.10;99.90;;;;;;4991833;28;20041;-72
2023/01/21 03:53:58;;;;;;;91.37;47.37;;;0.10;99.90;;;;;;4981412;28;20077;-72
2023/01/21 03:56:25;;;;;;;77.70;46.17;;;0.10;99.90;;;;;;4984813;28;20057;-73
2023/01/21 03:58:50;;;;;;;75.33;42.43;;;0.10;99.90;;;;;;4985368;28;20050;-72
2023/01/21 04:01:16;;;;;;;78.83;43.87;;;0.10;99.90;;;;;;4989515;28;20076;-72
2023/01/21 04:03:42;;;;;;;73.47;43.63;;;0.00;99.90;;;;;;4990857;28;20052;-72
2023/01/21 04:06:17;;;;;;;78.73;42.20;;;0.00;99.90;;;;;;4962059;28;20077;-72
2023/01/21 04:08:43;;;;;;;119.90;51.10;;;0.00;99.90;;;;;;4985438;28;20050;-72
2023/01/21 04:11:09;;;;;;;127.73;51.30;;;0.00;99.90;;;;;;4972014;28;20092;-73
2023/01/21 04:13:35;;;;;;;69.87;42.17;;;0.00;99.90;;;;;;4990119;28;20062;-72
2023/01/21 04:16:01;;;;;;;91.03;45.87;;;-0.10;99.90;;;;;;4963290;28;20049;-72
2023/01/21 04:18:27;;;;;;;114.53;50.20;;;-0.10;99.90;;;;;;4962640;28;20061;-72
2023/01/21 04:20:53;;;;;;;88.40;46.67;;;-0.10;99.90;;;;;;4964694;28;20875;-72
2023/01/21 04:23:19;;;;;;;114.67;51.53;;;0.00;99.90;;;;;;4948364;28;20509;-72
2023/01/21 04:25:48;;;;;;;76.03;44.37;;;-0.10;99.90;;;;;;4941275;28;20046;-73
2023/01/21 04:28:14;;;;;;;81.90;45.57;;;-0.10;99.90;;;;;;4987592;28;20614;-72
2023/01/21 04:30:40;;;;;;;76.57;44.90;;;0.00;99.90;;;;;;4982622;28;20041;-73
2023/01/21 04:33:09;;;;;;;80.43;44.47;;;-0.10;99.90;;;;;;4953318;28;20077;-72
2023/01/21 04:35:35;;;;;;;127.23;52.60;;;-0.10;99.90;;;;;;4970657;28;20354;-72
2023/01/21 04:38:02;;;;;;;126.03;51.30;;;0.00;99.90;;;;;;4980164;28;20076;-73
2023/01/21 04:40:28;;;;;;;161.33;56.47;;;-0.10;99.90;;;;;;4979449;28;20053;-72
2023/01/21 04:42:53;;;;;;;78.33;45.07;;;0.00;99.90;;;;;;4987048;28;20049;-72
2023/01/21 04:45:22;;;;;;;122.33;51.33;;;0.00;99.90;;;;;;4965160;28;20052;-72
2023/01/21 04:47:48;;;;;;;77.13;43.87;;;0.00;99.90;;;;;;4967297;28;20053;-73
2023/01/21 04:50:14;;;;;;;80.60;45.77;;;0.00;99.90;;;;;;4950723;28;20037;-73
2023/01/21 04:52:41;;;;;;;87.77;47.23;;;0.00;99.90;;;;;;4960576;28;20144;-73
2023/01/21 04:55:08;;;;;;;111.03;50.17;;;-0.10;99.90;;;;;;4985840;28;20048;-73
2023/01/21 04:57:37;;;;;;;90.33;48.57;;;-0.10;99.90;;;;;;4988283;28;20574;-73
2023/01/21 05:00:07;;;;;;;85.70;45.57;;;-0.10;99.90;;;;;;4989007;28;20107;-73
2023/01/21 05:02:33;;;;;;;117.63;51.97;;;-0.20;99.90;;;;;;4965577;28;20057;-73
2023/01/21 05:05:02;;;;;;;160.17;55.13;;;-0.20;99.90;;;;;;4958021;28;20046;-73
2023/01/21 05:07:28;;;;;;;112.53;50.63;;;-0.20;99.90;;;;;;4977217;28;20050;-73
2023/01/21 05:09:54;;;;;;;168.87;58.70;;;-0.30;99.90;;;;;;4955580;28;20378;-73
2023/01/21 05:12:19;;;;;;;106.20;52.33;;;-0.30;99.90;;;;;;4950165;28;20117;-73
2023/01/21 05:14:45;;;;;;;90.67;48.63;;;-0.40;99.90;;;;;;4988401;28;20038;-72
2023/01/21 05:17:11;;;;;;;107.73;50.80;;;-0.40;99.90;;;;;;4991291;28;20053;-72
2023/01/21 05:19:37;;;;;;;81.40;45.73;;;-0.50;99.90;;;;;;4970949;28;20061;-72
2023/01/21 05:22:02;;;;;;;116.40;53.27;;;-0.50;99.90;;;;;;4947532;28;20042;-72
2023/01/21 05:24:28;;;;;;;91.70;48.67;;;-0.50;99.90;;;;;;4971235;28;20500;-73
2023/01/21 05:26:54;;;;;;;93.70;49.23;;;-0.50;99.90;;;;;;4950632;28;20042;-72
2023/01/21 05:29:20;;;;;;;117.23;51.90;;;-0.50;99.90;;;;;;4985784;28;20037;-72
2023/01/21 05:31:46;;;;;;;96.37;49.40;;;-0.30;99.90;;;;;;4935481;28;20049;-72
2023/01/21 05:34:12;;;;;;;183.37;61.73;;;-0.40;99.90;;;;;;4965653;28;20114;-72
2023/01/21 05:36:38;;;;;;;184.53;66.03;;;-0.40;99.90;;;;;;4971384;28;20401;-72
2023/01/21 05:39:07;;;;;;;160.87;61.10;;;-0.40;99.90;;;;;;4968828;28;20138;-73
2023/01/21 05:41:33;;;;;;;164.77;61.43;;;-0.40;99.90;;;;;;4982745;28;20042;-72
2023/01/21 05:43:59;;;;;;;186.00;62.33;;;-0.30;99.90;;;;;;4981511;28;20133;-72
2023/01/21 05:46:25;;;;;;;132.93;56.63;;;-0.40;99.90;;;;;;4952265;28;20087;-72
2023/01/21 05:48:50;;;;;;;200.37;62.67;;;-0.40;99.90;;;;;;4984736;28;20091;-72
2023/01/21 05:51:16;;;;;;;401.40;82.57;;;-0.50;99.90;;;;;;4966939;28;20141;-72
2023/01/21 05:53:42;;;;;;;182.40;64.27;;;-0.60;99.90;;;;;;4965506;28;20124;-72
2023/01/21 05:56:08;;;;;;;364.43;79.97;;;-0.50;99.90;;;;;;4968051;28;20702;-72
2023/01/21 05:58:37;;;;;;;264.17;71.77;;;-0.50;99.90;;;;;;4970071;28;20050;-73
2023/01/21 06:01:03;;;;;;;218.77;67.97;;;-0.50;99.90;;;;;;4949629;28;20116;-72
2023/01/21 06:03:29;;;;;;;104.90;53.20;;;-0.40;99.90;;;;;;4948566;28;20058;-72
2023/01/21 06:05:55;;;;;;;126.43;54.63;;;-0.40;99.90;;;;;;4967549;28;20265;-72
2023/01/21 06:08:22;;;;;;;112.87;53.90;;;-0.40;99.90;;;;;;4969377;28;20073;-72
2023/01/21 06:10:48;;;;;;;122.87;57.10;;;-0.40;99.90;;;;;;4959828;28;20555;-72
2023/01/21 06:13:14;;;;;;;159.97;60.00;;;-0.40;99.90;;;;;;4978013;28;20046;-72
2023/01/21 06:15:40;;;;;;;102.43;53.37;;;-0.40;99.90;;;;;;4983823;28;20050;-72
2023/01/21 06:18:06;;;;;;;111.30;53.83;;;-0.40;99.90;;;;;;4990676;28;20056;-73
2023/01/21 06:20:33;;;;;;;107.33;53.93;;;-0.40;99.90;;;;;;4991070;28;20057;-72
2023/01/21 06:23:00;;;;;;;104.43;54.50;;;-0.40;99.90;;;;;;4969198;28;20497;-72
2023/01/21 06:25:27;;;;;;;95.40;50.17;;;-0.40;99.90;;;;;;4971259;28;20180;-72
2023/01/21 06:27:54;;;;;;;133.43;56.97;;;-0.40;99.90;;;;;;4954863;28;20056;-73
2023/01/21 06:30:20;;;;;;;149.33;57.77;;;-0.40;99.90;;;;;;4984479;28;20163;-73
2023/01/21 06:32:46;;;;;;;84.43;48.37;;;-0.40;99.90;;;;;;4980358;28;20496;-73
2023/01/21 06:35:12;;;;;;;89.87;49.00;;;-0.40;99.90;;;;;;4955418;28;20041;-72
2023/01/21 06:37:40;;;;;;;130.17;54.83;;;-0.40;99.90;;;;;;4952576;28;20050;-72
2023/01/21 06:40:07;;;;;;;116.63;53.10;;;-0.40;99.90;;;;;;4984309;28;20121;-72
2023/01/21 06:42:33;;;;;;;107.93;50.87;;;-0.40;99.90;;;;;;4990227;28;20536;-73
2023/01/21 06:45:03;;;;;;;111.63;51.53;;;-0.30;99.90;;;;;;4951054;28;20564;-73
2023/01/21 06:47:28;;;;;;;109.97;50.60;;;-0.40;99.90;;;;;;4980981;28;20515;-73
2023/01/21 06:49:54;;;;;;;132.27;54.17;;;-0.40;99.90;;;;;;4986548;28;20254;-73
2023/01/21 06:52:20;;;;;;;127.07;54.83;;;-0.30;99.90;;;;;;4962021;28;20084;-73
2023/01/21 06:54:47;;;;;;;272.40;72.17;;;-0.30;99.90;;;;;;4980188;28;20069;-73
2023/01/21 06:57:13;;;;;;;123.30;53.50;;;-0.30;99.90;;;;;;4957402;28;20442;-72
2023/01/21 06:59:39;;;;;;;121.87;54.67;;;-0.30;99.90;;;;;;4982481;28;20824;-73
2023/01/21 07:02:06;;;;;;;141.13;57.00;;;-0.30;99.90;;;;;;4970264;28;20113;-73
2023/01/21 07:04:32;;;;;;;135.20;53.60;;;-0.30;99.90;;;;;;4973860;28;20049;-72
2023/01/21 07:06:57;;;;;;;118.53;55.10;;;-0.30;99.90;;;;;;4983184;28;20509;-73
2023/01/21 07:09:23;;;;;;;135.00;56.87;;;-0.20;99.90;;;;;;4967134;28;20046;-72
2023/01/21 07:11:49;;;;;;;137.17;57.70;;;-0.30;99.90;;;;;;4975060;28;20057;-73
2023/01/21 07:14:15;;;;;;;137.03;57.10;;;-0.30;99.90;;;;;;4990978;28;20057;-73
2023/01/21 07:16:41;;;;;;;126.83;55.40;;;-0.30;99.90;;;;;;4941550;28;20926;-73
2023/01/21 07:19:07;;;;;;;132.27;56.53;;;-0.30;99.90;;;;;;4971324;28;20125;-73
2023/01/21 07:21:33;;;;;;;126.90;55.10;;;-0.30;99.90;;;;;;4969884;28;20042;-73
2023/01/21 07:23:59;;;;;;;87.67;48.73;;;-0.20;99.90;;;;;;4966531;28;20057;-73
2023/01/21 07:26:25;;;;;;;140.03;58.10;;;-0.20;99.90;;;;;;4969094;28;20050;-72
2023/01/21 07:28:51;;;;;;;93.57;50.60;;;-0.30;99.90;;;;;;4951196;28;20259;-73
2023/01/21 07:31:19;;;;;;;92.90;50.07;;;-0.30;99.90;;;;;;4965829;28;20053;-72
2023/01/21 07:33:45;;;;;;;142.10;58.97;;;-0.30;99.90;;;;;;4966563;28;20049;-72
2023/01/21 07:36:11;;;;;;;116.90;55.10;;;-0.30;99.90;;;;;;4969934;28;20108;-72
2023/01/21 07:38:37;;;;;;;101.57;51.73;;;-0.30;99.90;;;;;;4967986;28;20058;-72
2023/01/21 07:41:03;;;;;;;115.70;55.17;;;-0.30;99.90;;;;;;4951769;28;20438;-72
2023/01/21 07:43:29;;;;;;;108.93;54.97;;;-0.30;99.90;;;;;;4964580;28;20046;-72
2023/01/21 07:45:55;;;;;;;120.17;57.03;;;-0.30;99.90;;;;;;4982946;28;20304;-72
2023/01/21 07:48:21;;;;;;;108.60;56.53;;;-0.20;99.90;;;;;;4967469;28;20358;-72
2023/01/21 07:50:46;;;;;;;153.97;68.17;;;-0.20;99.90;;;;;;4983856;28;20042;-73
2023/01/21 07:53:12;;;;;;;159.47;67.83;;;-0.30;99.90;;;;;;4964228;28;20043;-73
2023/01/21 07:55:38;;;;;;;117.17;61.07;;;-0.20;99.90;;;;;;4951661;28;20050;-72
2023/01/21 07:58:04;;;;;;;142.03;69.80;;;-0.20;99.90;;;;;;4967952;28;20403;-72
2023/01/21 08:00:30;;;;;;;95.77;56.03;;;-0.20;99.90;;;;;;4934517;28;20050;-72
2023/01/21 08:02:57;;;;;;;101.13;57.80;;;-0.20;99.90;;;;;;4959425;28;20058;-72
2023/01/21 08:05:24;;;;;;;104.97;59.43;;;-0.10;99.90;;;;;;4965898;28;20153;-72
2023/01/21 08:07:51;;;;;;;97.63;56.23;;;-0.10;99.90;;;;;;4978376;28;20077;-73
2023/01/21 08:10:18;;;;;;;131.87;62.73;;;-0.10;99.90;;;;;;4984966;28;20056;-72
2023/01/21 08:12:44;;;;;;;88.03;51.43;;;-0.10;99.90;;;;;;4950281;28;20538;-72
2023/01/21 08:15:10;;;;;;;141.03;65.60;;;-0.10;99.90;;;;;;4969709;28;20042;-72
2023/01/21 08:17:41;;;;;;;95.13;55.53;;;-0.10;99.90;;;;;;4968069;28;20104;-72
2023/01/21 08:20:09;;;;;;;119.93;61.90;;;-0.20;99.90;;;;;;4984100;28;20077;-72
2023/01/21 08:22:35;;;;;;;127.67;64.23;;;-0.10;99.90;;;;;;4968907;28;20042;-72
2023/01/21 08:25:01;;;;;;;111.97;60.47;;;-0.10;99.90;;;;;;4962857;28;20116;-72
2023/01/21 08:27:27;;;;;;;117.73;62.13;;;0.00;99.90;;;;;;4950721;28;20513;-73
2023/01/21 08:29:53;;;;;;;97.57;57.50;;;-0.10;99.90;;;;;;4968554;28;20052;-73
2023/01/21 08:32:19;;;;;;;99.63;59.00;;;0.00;99.90;;;;;;4964739;28;20074;-73
2023/01/21 08:34:44;;;;;;;125.07;65.53;;;-0.10;99.90;;;;;;4983011;28;20042;-73
2023/01/21 08:37:10;;;;;;;127.37;66.57;;;0.00;99.90;;;;;;4964640;28;20053;-73
2023/01/21 08:39:36;;;;;;;120.37;63.03;;;0.00;99.90;;;;;;4963394;28;20070;-73
2023/01/21 08:42:02;;;;;;;113.57;64.83;;;0.00;99.90;;;;;;4964030;28;20039;-73
2023/01/21 08:44:28;;;;;;;121.43;68.57;;;0.10;99.90;;;;;;4968807;28;20129;-73
2023/01/21 08:46:54;;;;;;;114.10;65.90;;;0.10;99.90;;;;;;4981714;28;20042;-73
2023/01/21 08:49:21;;;;;;;126.63;70.47;;;0.10;99.90;;;;;;4967038;28;20042;-72
2023/01/21 08:51:47;;;;;;;110.47;66.73;;;0.10;99.90;;;;;;4962052;28;20134;-73
2023/01/21 08:54:13;;;;;;;113.33;65.60;;;0.10;99.90;;;;;;4975088;28;20141;-73
2023/01/21 08:56:39;;;;;;;117.80;68.27;;;0.10;99.90;;;;;;4944424;28;20134;-73
2023/01/21 08:59:05;;;;;;;104.17;63.73;;;0.10;99.90;;;;;;4964673;28;20133;-72
2023/01/21 09:01:32;;;;;;;94.37;60.17;;;0.10;99.90;;;;;;4983601;28;20050;-72
2023/01/21 09:03:59;;;;;;;117.37;69.63;;;0.20;99.90;;;;;;4962114;28;20520;-73
2023/01/21 09:06:27;;;;;;;103.43;63.97;;;0.10;99.90;;;;;;4985054;28;20060;-72
2023/01/21 09:08:54;;;;;;;89.17;57.90;;;0.20;99.90;;;;;;4951637;28;20042;-72
2023/01/21 09:11:20;;;;;;;97.73;63.93;;;0.20;99.90;;;;;;4978544;28;20540;-73
2023/01/21 09:13:46;;;;;;;90.43;59.00;;;0.20;99.90;;;;;;4964511;28;20046;-72
2023/01/21 09:16:15;;;;;;;109.23;64.93;;;0.20;99.90;;;;;;4969059;28;20394;-73
2023/01/21 09:18:41;;;;;;;95.17;58.17;;;0.20;99.90;;;;;;4963325;28;20085;-72
2023/01/21 09:21:08;;;;;;;91.73;57.57;;;0.30;99.90;;;;;;4968738;28;20405;-72
2023/01/21 09:23:35;;;;;;;92.23;57.00;;;0.30;99.90;;;;;;4966157;28;20650;-72
2023/01/21 09:26:03;;;;;;;92.47;56.33;;;0.30;99.90;;;;;;4964970;28;20089;-72
2023/01/21 09:28:30;;;;;;;93.57;58.87;;;0.30;99.90;;;;;;4983433;28;20473;-72
2023/01/21 09:31:02;;;;;;;91.53;59.97;;;0.30;99.90;;;;;;4986473;28;20539;-73
2023/01/21 09:33:32;;;;;;;92.20;58.70;;;0.30;99.90;;;;;;4977684;28;20333;-72
2023/01/21 09:36:00;;;;;;;85.63;56.50;;;0.40;99.90;;;;;;4982522;28;20038;-73
2023/01/21 09:38:27;;;;;;;95.60;61.37;;;0.30;99.90;;;;;;4967535;28;20308;-73
2023/01/21 09:40:55;;;;;;;95.83;62.13;;;0.20;99.90;;;;;;4980987;28;20082;-72
2023/01/21 09:43:27;;;;;;;79.07;55.27;;;0.20;99.90;;;;;;4952057;28;20061;-72
2023/01/21 09:45:57;;;;;;;75.33;52.50;;;0.20;99.90;;;;;;4967513;28;20054;-72
2023/01/21 09:48:36;;;;;;;86.18;56.35;;;0.20;99.90;;;;;;4967555;28;20489;-72
2023/01/21 09:51:18;;;;;;;85.73;54.33;;;0.20;99.90;;;;;;4964195;28;20105;-73
2023/01/21 09:53:53;;;;;;;75.77;52.03;;;0.20;99.90;;;;;;4981733;28;20061;-72
2023/01/21 09:56:32;;;;;;;78.70;53.27;;;0.30;99.90;;;;;;4983204;28;20053;-73
2023/01/21 09:59:19;;;;;;;71.17;49.50;;;0.30;99.90;;;;;;4969358;28;20802;-73
2023/01/21 10:01:45;;;;;;;75.37;51.53;;;0.30;99.90;;;;;;4982819;28;20061;-72
2023/01/21 10:04:47;;;;;;;72.67;49.30;;;0.30;99.90;;;;;;4944472;28;20570;-73
2023/01/21 10:07:23;;;;;;;81.87;54.57;;;0.30;99.90;;;;;;4982086;28;20050;-72
2023/01/21 10:10:04;;;;;;;76.43;52.00;;;0.30;99.90;;;;;;4977926;28;20058;-73
2023/01/21 10:13:02;;;;;;;75.97;50.13;;;0.30;99.90;;;;;;4980152;28;20046;-72
2023/01/21 10:15:40;;;;;;;78.43;52.00;;;0.40;99.90;;;;;;4976244;28;20526;-72
2023/01/21 10:18:16;;;;;;;81.87;53.80;;;0.40;99.90;;;;;;4954554;28;20053;-72
2023/01/21 10:20:50;;;;;;;82.30;54.23;;;0.40;99.90;;;;;;4978870;28;20132;-73
2023/01/21 10:23:25;;;;;;;83.33;55.13;;;0.40;99.90;;;;;;4963997;28;20074;-72
2023/01/21 10:25:51;;;;;;;74.93;52.57;;;0.40;99.90;;;;;;4978506;28;20047;-72
2023/01/21 10:28:23;;;;;;;90.97;63.73;;;0.50;99.90;;;;;;4949517;28;20097;-72
2023/01/21 10:30:51;;;;;;;79.77;55.20;;;0.50;99.90;;;;;;4980609;28;20046;-72
2023/01/21 10:33:24;;;;;;;89.97;61.67;;;0.50;99.90;;;;;;4965718;28;20532;-72
2023/01/21 10:35:58;;;;;;;93.40;64.40;;;0.50;99.90;;;;;;4981959;28;20050;-73
2023/01/21 10:38:39;;;;;;;87.67;59.90;;;0.60;99.90;;;;;;4954526;28;20672;-72
2023/01/21 10:41:41;;;;;;;81.43;58.00;;;0.60;99.90;;;;;;4968392;28;20061;-73
2023/01/21 10:44:26;;;;;;;68.43;50.00;;;0.60;99.90;;;;;;4973166;28;20042;-73
2023/01/21 10:47:19;;;;;;;75.20;52.33;;;0.60;99.90;;;;;;4959508;28;20042;-72
2023/01/21 10:49:57;;;;;;;74.37;52.37;;;0.70;99.90;;;;;;4987064;28;20082;-72
2023/01/21 10:52:51;;;;;;;72.77;52.07;;;0.80;99.90;;;;;;4980472;28;20051;-72
2023/01/21 10:55:42;;;;;;;72.90;52.57;;;0.80;99.90;;;;;;4944684;28;20377;-74
2023/01/21 10:58:32;;;;;;;76.80;56.00;;;0.90;99.90;;;;;;4969656;28;20130;-72
2023/01/21 11:01:02;;;;;;;71.00;53.15;;;1.00;99.90;;;;;;4982705;28;20085;-72
2023/01/21 11:03:31;;;;;;;62.50;47.65;;;1.00;99.90;;;;;;4985874;28;20043;-72
2023/01/21 11:05:59;;;;;;;59.87;46.80;;;1.10;99.90;;;;;;4968856;28;20108;-72
2023/01/21 11:08:27;;;;;;;61.60;47.43;;;1.30;99.90;;;;;;4970160;28;20128;-71
2023/01/21 11:10:56;;;;;;;61.57;48.40;;;1.30;99.90;;;;;;4949960;28;20056;-71
2023/01/21 11:13:22;;;;;;;61.90;46.73;;;1.40;99.90;;;;;;4971276;28;20050;-71
2023/01/21 11:15:54;;;;;;;60.33;46.10;;;1.50;99.90;;;;;;4985260;28;20061;-71
2023/01/21 11:18:34;;;;;;;55.73;43.27;;;1.50;99.90;;;;;;4982683;28;20044;-71
2023/01/21 11:21:17;;;;;;;52.10;43.40;;;1.60;99.90;;;;;;4981881;28;20046;-71
2023/01/21 11:23:55;;;;;;;48.87;40.47;;;1.60;99.90;;;;;;4985526;28;20056;-71
2023/01/21 11:26:33;;;;;;;53.63;42.40;;;1.70;99.90;;;;;;4979530;28;20055;-71
2023/01/21 11:29:14;;;;;;;53.00;43.43;;;1.80;99.90;;;;;;4983825;28;20050;-71
2023/01/21 11:31:43;;;;;;;47.43;40.53;;;1.90;99.90;;;;;;4965783;28;20038;-71
2023/01/21 11:34:20;;;;;;;48.83;39.33;;;1.90;99.90;;;;;;4985507;28;20313;-71
2023/01/21 11:37:25;;;;;;;44.47;37.83;;;1.90;99.90;;;;;;4982493;28;20050;-71
2023/01/21 11:39:58;;;;;;;46.80;39.47;;;2.10;99.90;;;;;;4966256;28;20048;-71
2023/01/21 11:42:24;;;;;;;44.07;36.63;;;2.10;99.90;;;;;;4965323;28;20124;-73
2023/01/21 11:44:51;;;;;;;43.63;37.13;;;2.20;99.90;;;;;;4984190;28;20069;-72
2023/01/21 11:47:37;;;;;;;44.40;35.80;;;2.20;99.90;;;;;;4978069;28;20086;-73
2023/01/21 11:50:21;;;;;;;40.93;34.87;;;2.30;99.90;;;;;;4979044;28;20133;-73
2023/01/21 11:53:11;;;;;;;35.23;30.53;;;2.40;99.90;;;;;;4987211;28;20046;-72
2023/01/21 11:55:45;;;;;;;36.30;30.83;;;2.50;99.90;;;;;;4959650;28;20046;-72
2023/01/21 11:58:32;;;;;;;32.57;27.77;;;2.60;99.90;;;;;;4965694;28;20050;-72
2023/01/21 12:01:00;;;;;;;29.60;26.40;;;2.80;99.90;;;;;;4986746;28;20049;-73
2023/01/21 12:03:39;;;;;;;31.33;26.75;;;2.80;99.90;;;;;;4984229;28;20173;-72
2023/01/21 12:06:06;;;;;;;30.50;27.20;;;2.90;99.90;;;;;;4983937;28;20066;-73
2023/01/21 12:08:38;;;;;;;26.75;23.92;;;2.90;99.90;;;;;;4967459;28;20038;-73
2023/01/21 12:11:07;;;;;;;24.05;21.45;;;3.00;99.90;;;;;;4969591;28;20096;-73
2023/01/21 12:13:44;;;;;;;25.42;22.30;;;3.00;99.90;;;;;;4985615;28;20054;-73
2023/01/21 12:16:31;;;;;;;25.13;22.13;;;3.10;99.90;;;;;;4968812;28;20050;-71
2023/01/21 12:19:21;;;;;;;22.45;19.75;;;3.10;99.90;;;;;;4978535;28;20050;-71
2023/01/21 12:21:53;;;;;;;24.98;22.30;;;3.10;99.90;;;;;;5003873;28;20050;-71
2023/01/21 12:24:38;;;;;;;26.47;22.93;;;3.10;99.90;;;;;;4983738;28;20346;-72
2023/01/21 12:27:16;;;;;;;27.23;23.25;;;3.20;99.90;;;;;;4965165;28;20077;-71
2023/01/21 12:30:23;;;;;;;23.85;21.35;;;3.20;99.90;;;;;;4986377;28;20710;-72
2023/01/21 12:32:59;;;;;;;21.90;18.70;;;3.30;99.90;;;;;;4982132;28;20116;-72
2023/01/21 12:35:46;;;;;;;20.38;18.27;;;3.40;99.90;;;;;;4984219;28;20050;-71
2023/01/21 12:38:29;;;;;;;18.90;16.90;;;3.40;99.90;;;;;;4979883;28;20145;-71
2023/01/21 12:41:15;;;;;;;19.08;16.70;;;3.40;99.90;;;;;;4965973;28;20540;-72
2023/01/21 12:43:47;;;;;;;22.25;18.90;;;3.40;99.90;;;;;;4966320;28;20133;-71
2023/01/21 12:46:19;;;;;;;18.67;16.67;;;3.50;99.90;;;;;;4984121;28;20046;-71
2023/01/21 12:48:53;;;;;;;17.85;15.95;;;3.40;99.90;;;;;;4980378;28;20124;-71
2023/01/21 12:51:40;;;;;;;19.95;16.98;;;3.50;99.90;;;;;;4967396;28;20046;-72